createdAt,value
2022-09-16T00:00:31.929Z,14.80
2022-09-16T00:02:59.209Z,14.80
2022-09-16T00:05:26.691Z,14.80
2022-09-16T00:07:54.320Z,14.70
2022-09-16T00:10:21.631Z,14.70
2022-09-16T00:12:50.074Z,14.70
2022-09-16T00:15:17.138Z,14.60
2022-09-16T00:17:43.987Z,14.60
2022-09-16T00:20:11.167Z,14.60
2022-09-16T00:22:38.650Z,14.50
2022-09-16T00:25:06.584Z,14.50
2022-09-16T00:27:33.511Z,14.40
2022-09-16T00:30:00.389Z,14.40
2022-09-16T00:32:27.325Z,14.40
2022-09-16T00:34:54.210Z,14.50
2022-09-16T00:37:21.186Z,14.50
2022-09-16T00:39:49.458Z,14.40
2022-09-16T00:42:17.674Z,14.30
2022-09-16T00:44:56.721Z,14.30
2022-09-16T00:47:44.681Z,14.20
2022-09-16T00:50:32.116Z,14.20
2022-09-16T00:53:00.667Z,14.20
2022-09-16T00:55:32.677Z,14.20
2022-09-16T00:58:10.564Z,14.10
2022-09-16T01:00:38.863Z,14.10
2022-09-16T01:03:06.366Z,14.10
2022-09-16T01:05:34.489Z,14.10
2022-09-16T01:08:01.594Z,14.00
2022-09-16T01:10:28.403Z,13.90
2022-09-16T01:12:59.366Z,13.90
2022-09-16T01:15:44.387Z,14.00
2022-09-16T01:18:36.331Z,14.10
2022-09-16T01:21:24.795Z,14.10
2022-09-16T01:24:07.842Z,14.00
2022-09-16T01:26:46.421Z,14.00
2022-09-16T01:29:32.030Z,13.90
2022-09-16T01:32:46.910Z,13.90
2022-09-16T01:35:30.552Z,13.80
2022-09-16T01:38:00.040Z,13.80
2022-09-16T01:40:41.361Z,13.80
2022-09-16T01:43:18.977Z,13.80
2022-09-16T01:45:56.142Z,13.70
2022-09-16T01:48:27.563Z,13.60
2022-09-16T01:51:05.387Z,13.60
2022-09-16T01:54:08.290Z,13.60
2022-09-16T01:56:46.857Z,13.60
2022-09-16T01:59:25.032Z,13.60
2022-09-16T02:02:00.800Z,13.60
2022-09-16T02:04:33.009Z,13.70
2022-09-16T02:07:01.737Z,13.70
2022-09-16T02:09:39.326Z,13.70
2022-09-16T02:12:12.871Z,13.70
2022-09-16T02:14:43.875Z,13.80
2022-09-16T02:17:17.275Z,13.70
2022-09-16T02:19:53.715Z,13.80
2022-09-16T02:22:32.368Z,13.90
2022-09-16T02:25:00.564Z,13.90
2022-09-16T02:27:29.191Z,13.80
2022-09-16T02:30:01.923Z,13.90
2022-09-16T02:32:31.567Z,13.90
2022-09-16T02:35:00.568Z,13.90
2022-09-16T02:37:33.888Z,13.90
2022-09-16T02:40:06.172Z,14.00
2022-09-16T02:42:33.985Z,14.10
2022-09-16T02:45:02.096Z,14.10
2022-09-16T02:47:59.589Z,14.10
2022-09-16T02:50:38.625Z,14.00
2022-09-16T02:53:31.565Z,13.90
2022-09-16T02:56:14.632Z,13.70
2022-09-16T02:58:41.713Z,13.70
2022-09-16T03:01:12.984Z,13.60
2022-09-16T03:03:40.489Z,13.70
2022-09-16T03:06:25.284Z,13.60
2022-09-16T03:08:54.491Z,13.70
2022-09-16T03:11:30.732Z,13.80
2022-09-16T03:14:03.580Z,13.80
2022-09-16T03:16:42.679Z,13.70
2022-09-16T03:19:21.481Z,13.70
2022-09-16T03:22:13.242Z,13.70
2022-09-16T03:24:56.521Z,13.70
2022-09-16T03:27:31.858Z,13.70
2022-09-16T03:30:07.849Z,13.60
2022-09-16T03:32:46.809Z,13.70
2022-09-16T03:35:22.258Z,13.60
2022-09-16T03:37:50.054Z,13.70
2022-09-16T03:40:19.363Z,13.70
2022-09-16T03:42:46.349Z,13.80
2022-09-16T03:45:16.298Z,13.70
2022-09-16T03:47:44.607Z,13.70
2022-09-16T03:50:11.466Z,13.70
2022-09-16T03:52:39.382Z,13.70
2022-09-16T03:55:07.655Z,13.70
2022-09-16T03:57:34.963Z,13.70
2022-09-16T04:00:02.072Z,13.70
2022-09-16T04:02:29.010Z,13.70
2022-09-16T04:04:55.823Z,13.70
2022-09-16T04:07:22.613Z,13.60
2022-09-16T04:09:49.441Z,13.50
2022-09-16T04:12:16.341Z,13.40
2022-09-16T04:14:43.130Z,13.40
2022-09-16T04:17:09.960Z,13.40
2022-09-16T04:19:36.747Z,13.50
2022-09-16T04:22:03.556Z,13.40
2022-09-16T04:24:30.607Z,13.30
2022-09-16T04:26:57.413Z,13.30
2022-09-16T04:29:24.204Z,13.40
2022-09-16T04:31:51.068Z,13.30
2022-09-16T04:34:17.936Z,13.30
2022-09-16T04:36:44.840Z,13.30
2022-09-16T04:39:12.376Z,13.30
2022-09-16T04:41:39.240Z,13.30
2022-09-16T04:44:06.017Z,13.30
2022-09-16T04:46:33.072Z,13.30
2022-09-16T04:49:00.662Z,13.30
2022-09-16T04:51:28.685Z,13.20
2022-09-16T04:53:58.164Z,13.20
2022-09-16T04:56:31.325Z,13.30
2022-09-16T04:59:03.643Z,13.30
2022-09-16T05:01:37.050Z,13.30
2022-09-16T05:04:06.263Z,13.30
2022-09-16T05:06:35.978Z,13.20
2022-09-16T05:09:03.823Z,13.30
2022-09-16T05:11:33.993Z,13.30
2022-09-16T05:14:02.275Z,13.40
2022-09-16T05:16:29.787Z,13.30
2022-09-16T05:18:59.804Z,13.30
2022-09-16T05:21:28.629Z,13.30
2022-09-16T05:23:56.090Z,13.30
2022-09-16T05:26:26.180Z,13.20
2022-09-16T05:28:53.981Z,13.30
2022-09-16T05:31:29.141Z,13.40
2022-09-16T05:34:01.944Z,13.40
2022-09-16T05:36:31.440Z,13.50
2022-09-16T05:39:21.689Z,13.60
2022-09-16T05:41:54.241Z,13.60
2022-09-16T05:44:22.072Z,13.70
2022-09-16T05:46:49.419Z,13.80
2022-09-16T05:49:21.592Z,13.70
2022-09-16T05:51:50.652Z,13.90
2022-09-16T05:54:19.126Z,13.80
2022-09-16T05:56:47.980Z,13.80
2022-09-16T05:59:16.594Z,13.90
2022-09-16T06:01:45.029Z,13.80
2022-09-16T06:04:53.697Z,13.80
2022-09-16T06:07:21.537Z,13.90
2022-09-16T06:09:49.142Z,13.90
2022-09-16T06:12:16.041Z,14.00
2022-09-16T06:14:42.860Z,13.90
2022-09-16T06:17:09.881Z,13.90
2022-09-16T06:19:36.688Z,13.70
2022-09-16T06:22:03.513Z,13.70
2022-09-16T06:24:30.340Z,13.70
2022-09-16T06:26:57.152Z,13.70
2022-09-16T06:29:23.996Z,13.70
2022-09-16T06:31:50.898Z,13.60
2022-09-16T06:34:21.136Z,13.50
2022-09-16T06:36:48.083Z,13.50
2022-09-16T06:39:16.089Z,13.60
2022-09-16T06:41:43.175Z,13.60
2022-09-16T06:44:10.157Z,13.50
2022-09-16T06:46:37.312Z,13.40
2022-09-16T06:49:06.057Z,13.40
2022-09-16T06:51:34.641Z,13.30
2022-09-16T06:54:06.469Z,13.20
2022-09-16T06:56:37.828Z,13.10
2022-09-16T06:59:05.528Z,13.00
2022-09-16T07:01:33.431Z,12.90
2022-09-16T07:04:05.447Z,13.00
2022-09-16T07:09:20.352Z,12.90
2022-09-16T07:11:47.178Z,12.90
2022-09-16T07:14:14.038Z,12.80
2022-09-16T07:16:40.885Z,12.90
2022-09-16T07:19:07.816Z,12.80
2022-09-16T07:21:34.956Z,12.70
2022-09-16T07:24:03.051Z,12.80
2022-09-16T07:26:35.404Z,12.70
2022-09-16T07:29:04.276Z,12.70
2022-09-16T07:31:33.682Z,12.70
2022-09-16T07:34:04.233Z,12.70
2022-09-16T07:36:34.352Z,12.80
2022-09-16T07:39:01.575Z,12.70
2022-09-16T07:41:30.838Z,12.80
2022-09-16T07:43:59.410Z,12.80
2022-09-16T07:46:32.490Z,12.80
2022-09-16T07:49:01.558Z,12.80
2022-09-16T07:51:29.858Z,12.90
2022-09-16T07:53:59.505Z,13.20
2022-09-16T07:56:29.099Z,13.40
2022-09-16T07:58:57.550Z,13.50
2022-09-16T08:01:25.371Z,13.60
2022-09-16T08:03:53.059Z,13.50
2022-09-16T08:06:22.304Z,13.70
2022-09-16T08:08:52.658Z,13.60
2022-09-16T08:11:19.915Z,13.70
2022-09-16T08:13:46.817Z,13.70
2022-09-16T08:16:19.297Z,13.50
2022-09-16T08:18:47.757Z,13.50
2022-09-16T08:21:17.977Z,13.60
2022-09-16T08:23:45.204Z,13.70
2022-09-16T08:26:13.684Z,13.80
2022-09-16T08:28:57.579Z,13.80
2022-09-16T08:31:29.292Z,13.90
2022-09-16T08:33:56.445Z,14.00
2022-09-16T08:36:24.823Z,14.10
2022-09-16T08:38:54.819Z,14.10
2022-09-16T08:42:00.329Z,14.10
2022-09-16T08:44:42.259Z,14.00
2022-09-16T08:47:38.456Z,14.00
2022-09-16T08:50:15.130Z,13.90
2022-09-16T08:52:44.295Z,13.90
2022-09-16T08:55:37.554Z,13.80
2022-09-16T08:58:13.228Z,13.60
2022-09-16T09:00:42.300Z,13.50
2022-09-16T09:03:24.686Z,13.40
2022-09-16T09:05:55.879Z,13.30
2022-09-16T09:08:47.175Z,13.30
2022-09-16T09:11:26.375Z,13.10
2022-09-16T09:14:07.448Z,13.10
2022-09-16T09:16:57.057Z,13.10
2022-09-16T09:19:31.504Z,13.10
2022-09-16T09:22:11.101Z,13.30
2022-09-16T09:24:42.084Z,13.30
2022-09-16T09:27:28.664Z,13.30
2022-09-16T09:30:13.793Z,13.40
2022-09-16T09:33:03.880Z,13.70
2022-09-16T09:35:55.581Z,14.00
2022-09-16T09:38:38.437Z,14.50
2022-09-16T09:41:10.944Z,15.40
2022-09-16T09:43:49.789Z,17.80
2022-09-16T09:46:40.766Z,18.50
2022-09-16T09:49:27.736Z,18.20
2022-09-16T09:52:31.273Z,18.70
2022-09-16T09:55:16.104Z,19.90
2022-09-16T09:58:01.263Z,22.50
2022-09-16T10:00:28.204Z,21.80
2022-09-16T10:03:04.551Z,20.70
2022-09-16T10:05:31.974Z,20.60
2022-09-16T10:08:19.660Z,20.70
2022-09-16T10:10:52.825Z,20.40
2022-09-16T10:13:21.155Z,20.40
2022-09-16T10:15:53.271Z,21.00
2022-09-16T10:18:26.972Z,21.30
2022-09-16T10:21:10.991Z,22.50
2022-09-16T10:23:39.598Z,22.80
2022-09-16T10:26:08.537Z,21.20
2022-09-16T10:28:35.675Z,20.20
2022-09-16T10:31:03.147Z,18.90
2022-09-16T10:33:42.890Z,17.60
2022-09-16T10:36:17.461Z,15.90
2022-09-16T10:38:48.854Z,14.90
2022-09-16T10:41:34.376Z,14.50
2022-09-16T10:44:06.629Z,14.30
2022-09-16T10:46:34.088Z,14.20
2022-09-16T10:49:09.919Z,14.20
2022-09-16T10:51:36.790Z,14.30
2022-09-16T10:54:08.755Z,14.40
2022-09-16T10:56:48.136Z,14.50
2022-09-16T10:59:15.610Z,14.80
2022-09-16T11:05:13.871Z,17.20
2022-09-16T11:08:16.683Z,18.50
2022-09-16T11:11:12.044Z,18.90
2022-09-16T11:14:16.468Z,19.60
2022-09-16T11:17:11.435Z,19.80
2022-09-16T11:20:06.213Z,19.50
2022-09-16T11:22:42.207Z,19.10
2022-09-16T11:25:38.238Z,18.40
2022-09-16T11:28:22.870Z,17.40
2022-09-16T11:31:08.871Z,16.50
2022-09-16T11:34:16.987Z,16.00
2022-09-16T11:37:04.057Z,15.60
2022-09-16T11:39:45.904Z,15.30
2022-09-16T11:42:35.612Z,15.20
2022-09-16T11:45:20.827Z,15.10
2022-09-16T11:47:50.704Z,14.80
2022-09-16T11:50:34.046Z,14.50
2022-09-16T11:53:32.235Z,14.10
2022-09-16T11:56:11.680Z,13.80
2022-09-16T11:58:57.992Z,13.50
2022-09-16T12:01:41.935Z,13.20
2022-09-16T12:04:14.786Z,13.10
2022-09-16T12:07:06.368Z,13.00
2022-09-16T12:09:42.156Z,12.80
2022-09-16T12:12:18.743Z,12.50
2022-09-16T12:14:57.004Z,12.50
2022-09-16T12:17:29.199Z,12.50
2022-09-16T12:20:08.400Z,12.60
2022-09-16T12:22:50.398Z,12.70
2022-09-16T12:25:28.552Z,13.00
2022-09-16T12:28:15.363Z,13.30
2022-09-16T12:30:49.365Z,13.80
2022-09-16T12:33:24.135Z,14.30
2022-09-16T12:36:02.301Z,14.80
2022-09-16T12:38:29.493Z,15.50
2022-09-16T12:41:14.731Z,16.40
2022-09-16T12:44:23.280Z,17.40
2022-09-16T12:47:19.437Z,18.20
2022-09-16T12:50:16.472Z,18.00
2022-09-16T12:52:57.342Z,18.10
2022-09-16T12:55:42.449Z,18.10
2022-09-16T12:58:34.817Z,18.30
2022-09-16T13:01:17.382Z,18.30
2022-09-16T13:03:49.166Z,18.10
2022-09-16T13:06:32.318Z,17.80
2022-09-16T13:09:21.055Z,17.30
2022-09-16T13:14:53.480Z,16.90
2022-09-16T13:17:35.310Z,16.90
2022-09-16T13:20:02.088Z,17.10
2022-09-16T13:22:40.835Z,17.50
2022-09-16T13:25:32.387Z,17.90
2022-09-16T13:28:22.560Z,18.70
2022-09-16T13:30:49.414Z,21.20
2022-09-16T13:33:22.986Z,21.80
2022-09-16T13:36:24.206Z,21.60
2022-09-16T13:38:56.096Z,19.60
2022-09-16T13:41:33.304Z,17.80
2022-09-16T13:44:00.718Z,17.80
2022-09-16T13:46:37.983Z,17.50
2022-09-16T13:49:05.180Z,17.00
2022-09-16T13:51:38.446Z,16.60
2022-09-16T13:54:15.432Z,16.20
2022-09-16T13:56:58.045Z,16.20
2022-09-16T14:00:02.673Z,16.30
2022-09-16T14:02:53.954Z,18.00
2022-09-16T14:05:28.708Z,20.40
2022-09-16T14:07:58.348Z,23.00
2022-09-16T14:11:00.838Z,23.20
2022-09-16T14:13:48.317Z,23.50
2022-09-16T14:16:26.468Z,25.00
2022-09-16T14:18:56.460Z,26.30
2022-09-16T14:21:25.254Z,27.50
2022-09-16T14:23:52.097Z,28.70
2022-09-16T14:26:24.232Z,29.30
2022-09-16T14:29:02.478Z,27.90
2022-09-16T14:31:31.877Z,25.40
2022-09-16T14:34:07.669Z,23.10
2022-09-16T14:36:39.523Z,21.70
2022-09-16T14:39:06.177Z,20.60
2022-09-16T14:41:47.582Z,20.00
2022-09-16T14:44:20.134Z,19.30
2022-09-16T14:47:09.583Z,18.90
2022-09-16T14:49:38.544Z,18.50
2022-09-16T14:52:05.502Z,18.20
2022-09-16T14:54:33.381Z,17.80
2022-09-16T14:57:06.765Z,18.60
2022-09-16T14:59:36.920Z,19.90
2022-09-16T15:02:26.869Z,20.80
2022-09-16T15:05:04.751Z,22.40
2022-09-16T15:07:46.017Z,24.30
2022-09-16T15:10:26.962Z,25.30
2022-09-16T15:13:09.155Z,24.80
2022-09-16T15:15:36.910Z,23.50
2022-09-16T15:18:12.545Z,23.60
2022-09-16T15:20:42.270Z,24.60
2022-09-16T15:23:23.911Z,24.30
2022-09-16T15:26:09.597Z,23.80
2022-09-16T15:28:36.510Z,23.40
2022-09-16T15:31:03.898Z,22.90
2022-09-16T15:33:41.784Z,22.70
2022-09-16T15:36:33.470Z,22.60
2022-09-16T15:39:00.437Z,22.00
2022-09-16T15:41:27.595Z,21.60
2022-09-16T15:43:54.472Z,21.20
2022-09-16T15:46:23.668Z,20.30
2022-09-16T15:48:59.699Z,19.40
2022-09-16T15:51:34.497Z,18.70
2022-09-16T15:54:15.480Z,18.10
2022-09-16T15:57:11.250Z,17.60
2022-09-16T16:00:16.398Z,17.70
2022-09-16T16:02:57.734Z,17.40
2022-09-16T16:05:30.657Z,17.10
2022-09-16T16:08:04.078Z,17.00
2022-09-16T16:10:38.416Z,16.90
2022-09-16T16:13:05.368Z,16.90
2022-09-16T16:15:38.980Z,16.90
2022-09-16T16:18:09.184Z,16.60
2022-09-16T16:20:38.085Z,16.20
2022-09-16T16:23:08.392Z,15.90
2022-09-16T16:25:39.283Z,15.50
2022-09-16T16:28:06.342Z,15.00
2022-09-16T16:30:33.226Z,14.80
2022-09-16T16:33:00.636Z,14.60
2022-09-16T16:35:27.562Z,14.30
2022-09-16T16:37:54.845Z,14.10
2022-09-16T16:40:21.764Z,14.00
2022-09-16T16:42:48.910Z,13.80
2022-09-16T16:45:16.689Z,13.60
2022-09-16T16:47:44.432Z,13.30
2022-09-16T16:50:11.799Z,13.00
2022-09-16T16:52:38.649Z,12.80
2022-09-16T16:55:07.145Z,12.60
2022-09-16T16:57:34.191Z,12.40
2022-09-16T17:00:01.035Z,12.40
2022-09-16T17:02:27.876Z,12.30
2022-09-16T17:04:54.713Z,12.30
2022-09-16T17:07:26.653Z,12.30
2022-09-16T17:09:57.724Z,12.30
2022-09-16T17:12:25.178Z,12.20
2022-09-16T17:14:52.042Z,12.20
2022-09-16T17:17:18.913Z,12.20
2022-09-16T17:19:45.776Z,12.40
2022-09-16T17:22:12.617Z,12.30
2022-09-16T17:24:39.877Z,12.30
2022-09-16T17:27:06.854Z,12.30
2022-09-16T17:29:33.859Z,12.20
2022-09-16T17:32:03.067Z,12.20
2022-09-16T17:34:31.363Z,12.20
2022-09-16T17:36:58.812Z,12.20
2022-09-16T17:39:26.235Z,12.20
2022-09-16T17:41:54.724Z,12.20
2022-09-16T17:44:21.833Z,12.20
2022-09-16T17:46:48.722Z,12.30
2022-09-16T17:49:18.466Z,12.30
2022-09-16T17:51:45.804Z,12.40
2022-09-16T17:54:13.102Z,12.30
2022-09-16T17:56:42.676Z,12.30
2022-09-16T17:59:11.032Z,12.30
2022-09-16T18:01:38.665Z,12.30
2022-09-16T18:04:05.829Z,12.30
2022-09-16T18:06:39.401Z,12.20
2022-09-16T18:09:07.570Z,12.20
2022-09-16T18:11:35.608Z,12.20
2022-09-16T18:14:04.508Z,12.10
2022-09-16T18:16:32.340Z,12.10
2022-09-16T18:19:01.589Z,11.90
2022-09-16T18:21:28.581Z,11.90
2022-09-16T18:23:58.522Z,11.90
2022-09-16T18:26:25.951Z,11.90
2022-09-16T18:29:09.488Z,11.70
2022-09-16T18:31:37.005Z,11.60
2022-09-16T18:34:04.920Z,11.50
2022-09-16T18:36:33.569Z,11.50
2022-09-16T18:39:00.967Z,11.40
2022-09-16T18:41:30.994Z,11.30
2022-09-16T18:44:00.259Z,11.30
2022-09-16T18:46:32.295Z,11.30
2022-09-16T18:49:00.229Z,11.30
2022-09-16T18:51:51.271Z,11.30
2022-09-16T18:54:29.797Z,11.30
2022-09-16T18:57:01.993Z,11.30
2022-09-16T18:59:29.855Z,11.30
2022-09-16T19:01:59.278Z,11.30
2022-09-16T19:04:28.796Z,11.30
2022-09-16T19:06:59.436Z,11.30
2022-09-16T19:09:26.440Z,11.30
2022-09-16T19:11:54.450Z,11.30
2022-09-16T19:14:25.060Z,11.40
2022-09-16T19:16:52.746Z,11.40
2022-09-16T19:19:20.395Z,11.50
2022-09-16T19:21:47.789Z,11.60
2022-09-16T19:24:20.402Z,11.60
2022-09-16T19:26:48.264Z,11.60
2022-09-16T19:29:16.905Z,11.50
2022-09-16T19:31:46.071Z,11.50
2022-09-16T19:34:14.413Z,11.30
2022-09-16T19:36:42.089Z,11.20
2022-09-16T19:39:10.366Z,11.00
2022-09-16T19:41:39.711Z,11.00
2022-09-16T19:44:13.909Z,11.00
2022-09-16T19:46:42.814Z,10.90
2022-09-16T19:49:16.490Z,10.80
2022-09-16T19:51:43.533Z,10.70
2022-09-16T19:54:10.439Z,10.60
2022-09-16T19:56:37.375Z,10.70
2022-09-16T19:59:04.544Z,10.60
2022-09-16T20:01:34.426Z,10.60
2022-09-16T20:04:03.553Z,10.50
2022-09-16T20:06:34.854Z,10.50
2022-09-16T20:09:03.760Z,10.50
2022-09-16T20:11:33.933Z,10.50
2022-09-16T20:14:05.512Z,10.50
2022-09-16T20:16:38.916Z,10.40
2022-09-16T20:19:08.919Z,10.50
2022-09-16T20:21:36.753Z,10.50
2022-09-16T20:24:06.637Z,10.40
2022-09-16T20:26:34.807Z,10.40
2022-09-16T20:29:09.978Z,10.40
2022-09-16T20:31:41.494Z,10.40
2022-09-16T20:34:14.511Z,10.40
2022-09-16T20:36:46.073Z,10.50
2022-09-16T20:39:20.357Z,10.50
2022-09-16T20:41:58.941Z,10.40
2022-09-16T20:44:26.694Z,10.40
2022-09-16T20:46:57.013Z,10.40
2022-09-16T20:49:26.059Z,10.40
2022-09-16T20:51:56.923Z,10.40
2022-09-16T20:54:29.392Z,10.30
2022-09-16T20:56:59.710Z,10.30
2022-09-16T20:59:27.258Z,10.20
2022-09-16T21:01:54.144Z,10.20
2022-09-16T21:04:21.817Z,10.20
2022-09-16T21:06:49.234Z,10.20
2022-09-16T21:09:17.984Z,10.20
2022-09-16T21:11:45.348Z,10.30
2022-09-16T21:14:15.380Z,10.30
2022-09-16T21:16:43.393Z,10.30
2022-09-16T21:19:12.819Z,10.30
2022-09-16T21:21:43.767Z,10.30
2022-09-16T21:24:11.233Z,10.30
2022-09-16T21:26:40.376Z,10.30
2022-09-16T21:29:11.204Z,10.30
2022-09-16T21:31:40.718Z,10.30
2022-09-16T21:34:13.191Z,10.40
2022-09-16T21:36:41.330Z,10.40
2022-09-16T21:39:09.576Z,10.60
2022-09-16T21:41:37.299Z,10.60
2022-09-16T21:44:04.586Z,10.60
2022-09-16T21:46:45.217Z,10.60
2022-09-16T21:49:29.046Z,10.70
2022-09-16T21:51:58.323Z,10.80
2022-09-16T21:54:25.903Z,10.70
2022-09-16T21:56:53.405Z,10.70
2022-09-16T21:59:20.803Z,10.60
2022-09-16T22:01:49.913Z,10.60
2022-09-16T22:04:20.469Z,10.60
2022-09-16T22:06:48.878Z,10.60
2022-09-16T22:09:16.451Z,10.50
2022-09-16T22:11:43.419Z,10.50
2022-09-16T22:14:11.227Z,10.50
2022-09-16T22:16:38.653Z,10.40
2022-09-16T22:19:16.336Z,10.50
2022-09-16T22:21:46.598Z,10.50
2022-09-16T22:24:16.181Z,10.50
2022-09-16T22:26:43.557Z,10.50
2022-09-16T22:29:11.723Z,10.40
2022-09-16T22:31:41.731Z,10.30
2022-09-16T22:34:09.436Z,10.30
2022-09-16T22:36:37.356Z,10.30
2022-09-16T22:39:12.531Z,10.30
2022-09-16T22:41:39.474Z,10.30
2022-09-16T22:44:06.491Z,10.20
2022-09-16T22:46:38.760Z,10.30
2022-09-16T22:49:05.669Z,10.30
2022-09-16T22:51:32.673Z,10.30
2022-09-16T22:53:59.709Z,10.30
2022-09-16T22:56:32.168Z,10.40
2022-09-16T22:59:04.698Z,10.40
2022-09-16T23:01:35.409Z,10.30
2022-09-16T23:04:03.774Z,10.30
2022-09-16T23:06:32.237Z,10.20
2022-09-16T23:08:59.674Z,10.30
2022-09-16T23:11:29.333Z,10.30
2022-09-16T23:13:58.175Z,10.40
2022-09-16T23:16:30.745Z,10.40
2022-09-16T23:19:02.139Z,10.40
2022-09-16T23:21:30.010Z,10.40
2022-09-16T23:24:00.390Z,10.40
2022-09-16T23:26:30.072Z,10.30
2022-09-16T23:28:59.615Z,10.40
2022-09-16T23:31:29.328Z,10.50
2022-09-16T23:33:57.126Z,10.60
2022-09-16T23:36:26.025Z,10.60
2022-09-16T23:38:53.885Z,10.50
2022-09-16T23:41:24.751Z,10.50
2022-09-16T23:43:51.597Z,10.50
2022-09-16T23:46:20.929Z,10.50
2022-09-16T23:48:51.135Z,10.50
2022-09-16T23:51:27.218Z,10.70
2022-09-16T23:53:56.263Z,10.80
2022-09-16T23:56:23.437Z,10.80
2022-09-16T23:58:51.107Z,10.80
